sensor_id;sensor_type;location;lat;lon;timestamp;P1;durP1;ratioP1;P2;durP2;ratioP2
6280;SDS011;3173;48.204;11.612;2024-01-15T00:00:42;8.32;;;3.67;;
6280;SDS011;3173;48.204;11.612;2024-01-15T00:03:08;6.35;;;3.00;;
6280;SDS011;3173;48.204;11.612;2024-01-15T00:05:34;5.72;;;3.33;;
6280;SDS011;3173;48.204;11.612;2024-01-15T00:08:01;7.57;;;3.85;;
6280;SDS011;3173;48.204;11.612;2024-01-15T00:10:27;6.75;;;3.25;;
6280;SDS011;3173;48.204;11.612;2024-01-15T00:12:53;6.75;;;3.70;;
6280;SDS011;3173;48.204;11.612;2024-01-15T00:15:19;6.72;;;3.38;;
6280;SDS011;3173;48.204;11.612;2024-01-15T00:17:45;7.88;;;4.72;;
6280;SDS011;3173;48.204;11.612;2024-01-15T00:20:12;6.70;;;3.72;;
6280;SDS011;3173;48.204;11.612;2024-01-15T00:22:38;8.45;;;4.68;;
6280;SDS011;3173;48.204;11.612;2024-01-15T00:25:05;9.23;;;4.80;;
6280;SDS011;3173;48.204;11.612;2024-01-15T00:27:31;9.38;;;4.30;;
6280;SDS011;3173;48.204;11.612;2024-01-15T00:29:57;7.75;;;4.93;;
6280;SDS011;3173;48.204;11.612;2024-01-15T00:32:24;9.43;;;5.10;;
6280;SDS011;3173;48.204;11.612;2024-01-15T00:34:50;9.55;;;4.53;;
6280;SDS011;3173;48.204;11.612;2024-01-15T00:37:16;12.77;;;5.75;;
6280;SDS011;3173;48.204;11.612;2024-01-15T00:39:42;9.27;;;4.30;;
6280;SDS011;3173;48.204;11.612;2024-01-15T00:42:08;6.45;;;3.55;;
6280;SDS011;3173;48.204;11.612;2024-01-15T00:44:35;12.02;;;4.70;;
6280;SDS011;3173;48.204;11.612;2024-01-15T00:47:01;9.63;;;4.68;;
6280;SDS011;3173;48.204;11.612;2024-01-15T00:49:27;9.48;;;4.88;;
6280;SDS011;3173;48.204;11.612;2024-01-15T00:51:53;12.60;;;5.95;;
6280;SDS011;3173;48.204;11.612;2024-01-15T00:54:19;12.35;;;6.35;;
6280;SDS011;3173;48.204;11.612;2024-01-15T00:56:45;12.15;;;6.28;;
6280;SDS011;3173;48.204;11.612;2024-01-15T00:59:11;9.70;;;5.38;;
6280;SDS011;3173;48.204;11.612;2024-01-15T01:01:40;11.88;;;6.03;;
6280;SDS011;3173;48.204;11.612;2024-01-15T01:04:08;14.70;;;7.25;;
6280;SDS011;3173;48.204;11.612;2024-01-15T01:06:34;15.05;;;6.75;;
6280;SDS011;3173;48.204;11.612;2024-01-15T01:09:01;12.63;;;6.28;;
6280;SDS011;3173;48.204;11.612;2024-01-15T01:11:27;11.93;;;6.20;;
6280;SDS011;3173;48.204;11.612;2024-01-15T01:13:53;13.30;;;6.20;;
6280;SDS011;3173;48.204;11.612;2024-01-15T01:16:19;13.13;;;6.90;;
6280;SDS011;3173;48.204;11.612;2024-01-15T01:18:45;10.90;;;6.30;;
6280;SDS011;3173;48.204;11.612;2024-01-15T01:21:11;9.75;;;5.10;;
6280;SDS011;3173;48.204;11.612;2024-01-15T01:23:37;14.18;;;6.65;;
6280;SDS011;3173;48.204;11.612;2024-01-15T01:26:04;11.98;;;5.05;;
6280;SDS011;3173;48.204;11.612;2024-01-15T01:28:30;10.05;;;5.03;;
6280;SDS011;3173;48.204;11.612;2024-01-15T01:30:56;10.32;;;5.32;;
6280;SDS011;3173;48.204;11.612;2024-01-15T01:33:22;8.93;;;5.18;;
6280;SDS011;3173;48.204;11.612;2024-01-15T01:35:48;11.38;;;5.00;;
6280;SDS011;3173;48.204;11.612;2024-01-15T01:38:14;9.25;;;5.38;;
6280;SDS011;3173;48.204;11.612;2024-01-15T01:40:40;9.05;;;4.35;;
6280;SDS011;3173;48.204;11.612;2024-01-15T01:43:08;7.88;;;3.83;;
6280;SDS011;3173;48.204;11.612;2024-01-15T01:45:35;9.40;;;4.43;;
6280;SDS011;3173;48.204;11.612;2024-01-15T01:48:01;6.85;;;3.58;;
6280;SDS011;3173;48.204;11.612;2024-01-15T01:50:29;9.43;;;3.70;;
6280;SDS011;3173;48.204;11.612;2024-01-15T01:52:56;7.68;;;3.47;;
6280;SDS011;3173;48.204;11.612;2024-01-15T01:55:23;9.57;;;4.05;;
6280;SDS011;3173;48.204;11.612;2024-01-15T01:57:50;9.02;;;4.22;;
6280;SDS011;3173;48.204;11.612;2024-01-15T02:00:16;8.02;;;4.50;;
6280;SDS011;3173;48.204;11.612;2024-01-15T02:02:43;9.45;;;3.72;;
6280;SDS011;3173;48.204;11.612;2024-01-15T02:05:09;8.25;;;4.25;;
6280;SDS011;3173;48.204;11.612;2024-01-15T02:07:36;8.57;;;4.07;;
6280;SDS011;3173;48.204;11.612;2024-01-15T02:10:02;6.75;;;3.85;;
6280;SDS011;3173;48.204;11.612;2024-01-15T02:12:29;8.10;;;4.38;;
6280;SDS011;3173;48.204;11.612;2024-01-15T02:14:55;9.70;;;3.85;;
6280;SDS011;3173;48.204;11.612;2024-01-15T02:17:21;10.40;;;4.07;;
6280;SDS011;3173;48.204;11.612;2024-01-15T02:19:47;8.10;;;4.00;;
6280;SDS011;3173;48.204;11.612;2024-01-15T02:22:13;9.70;;;5.43;;
6280;SDS011;3173;48.204;11.612;2024-01-15T02:24:39;10.90;;;5.07;;
6280;SDS011;3173;48.204;11.612;2024-01-15T02:27:05;10.55;;;4.30;;
6280;SDS011;3173;48.204;11.612;2024-01-15T02:29:32;9.98;;;4.65;;
6280;SDS011;3173;48.204;11.612;2024-01-15T02:31:58;8.32;;;4.63;;
6280;SDS011;3173;48.204;11.612;2024-01-15T02:34:24;8.63;;;4.55;;
6280;SDS011;3173;48.204;11.612;2024-01-15T02:36:50;12.45;;;5.13;;
6280;SDS011;3173;48.204;11.612;2024-01-15T02:39:16;9.90;;;5.20;;
6280;SDS011;3173;48.204;11.612;2024-01-15T02:41:42;9.57;;;5.00;;
6280;SDS011;3173;48.204;11.612;2024-01-15T02:44:08;9.43;;;4.80;;
6280;SDS011;3173;48.204;11.612;2024-01-15T02:46:35;9.80;;;5.00;;
6280;SDS011;3173;48.204;11.612;2024-01-15T02:49:01;10.93;;;4.90;;
6280;SDS011;3173;48.204;11.612;2024-01-15T02:51:27;8.35;;;4.28;;
6280;SDS011;3173;48.204;11.612;2024-01-15T02:53:53;12.27;;;5.25;;
6280;SDS011;3173;48.204;11.612;2024-01-15T02:56:19;11.13;;;4.85;;
6280;SDS011;3173;48.204;11.612;2024-01-15T02:58:45;14.00;;;5.97;;
6280;SDS011;3173;48.204;11.612;2024-01-15T03:01:11;9.02;;;5.10;;
6280;SDS011;3173;48.204;11.612;2024-01-15T03:03:39;10.15;;;5.00;;
6280;SDS011;3173;48.204;11.612;2024-01-15T03:06:05;11.07;;;4.97;;
6280;SDS011;3173;48.204;11.612;2024-01-15T03:08:31;10.73;;;6.07;;
6280;SDS011;3173;48.204;11.612;2024-01-15T03:10:57;12.05;;;5.28;;
6280;SDS011;3173;48.204;11.612;2024-01-15T03:13:24;14.52;;;5.63;;
6280;SDS011;3173;48.204;11.612;2024-01-15T03:15:50;10.70;;;5.00;;
6280;SDS011;3173;48.204;11.612;2024-01-15T03:18:16;12.70;;;5.20;;
6280;SDS011;3173;48.204;11.612;2024-01-15T03:20:42;11.85;;;5.32;;
6280;SDS011;3173;48.204;11.612;2024-01-15T03:23:08;13.02;;;5.45;;
6280;SDS011;3173;48.204;11.612;2024-01-15T03:25:34;14.60;;;5.25;;
6280;SDS011;3173;48.204;11.612;2024-01-15T03:28:00;11.82;;;5.63;;
6280;SDS011;3173;48.204;11.612;2024-01-15T03:30:26;9.73;;;5.63;;
6280;SDS011;3173;48.204;11.612;2024-01-15T03:32:53;10.82;;;5.20;;
6280;SDS011;3173;48.204;11.612;2024-01-15T03:35:19;10.05;;;5.00;;
6280;SDS011;3173;48.204;11.612;2024-01-15T03:37:45;9.80;;;5.17;;
6280;SDS011;3173;48.204;11.612;2024-01-15T03:40:11;10.30;;;4.88;;
6280;SDS011;3173;48.204;11.612;2024-01-15T03:42:38;10.48;;;5.70;;
6280;SDS011;3173;48.204;11.612;2024-01-15T03:45:04;11.93;;;5.55;;
6280;SDS011;3173;48.204;11.612;2024-01-15T03:47:30;13.82;;;6.18;;
6280;SDS011;3173;48.204;11.612;2024-01-15T03:49:56;10.18;;;4.82;;
6280;SDS011;3173;48.204;11.612;2024-01-15T03:52:22;13.20;;;5.53;;
6280;SDS011;3173;48.204;11.612;2024-01-15T03:54:48;11.65;;;5.10;;
6280;SDS011;3173;48.204;11.612;2024-01-15T03:57:15;11.10;;;4.72;;
6280;SDS011;3173;48.204;11.612;2024-01-15T03:59:41;11.13;;;5.32;;
6280;SDS011;3173;48.204;11.612;2024-01-15T04:02:07;10.95;;;4.90;;
6280;SDS011;3173;48.204;11.612;2024-01-15T04:04:33;10.88;;;5.28;;
6280;SDS011;3173;48.204;11.612;2024-01-15T04:06:59;11.98;;;5.07;;
6280;SDS011;3173;48.204;11.612;2024-01-15T04:09:25;10.90;;;5.60;;
6280;SDS011;3173;48.204;11.612;2024-01-15T04:11:51;8.10;;;4.38;;
6280;SDS011;3173;48.204;11.612;2024-01-15T04:14:17;11.43;;;4.97;;
6280;SDS011;3173;48.204;11.612;2024-01-15T04:16:44;8.90;;;4.90;;
6280;SDS011;3173;48.204;11.612;2024-01-15T04:19:10;9.48;;;5.10;;
6280;SDS011;3173;48.204;11.612;2024-01-15T04:21:36;14.65;;;5.68;;
6280;SDS011;3173;48.204;11.612;2024-01-15T04:24:02;11.55;;;5.50;;
6280;SDS011;3173;48.204;11.612;2024-01-15T04:26:28;11.00;;;5.05;;
6280;SDS011;3173;48.204;11.612;2024-01-15T04:28:54;9.48;;;4.85;;
6280;SDS011;3173;48.204;11.612;2024-01-15T04:31:22;10.35;;;5.32;;
6280;SDS011;3173;48.204;11.612;2024-01-15T04:33:48;9.20;;;4.75;;
6280;SDS011;3173;48.204;11.612;2024-01-15T04:36:15;9.35;;;4.80;;
6280;SDS011;3173;48.204;11.612;2024-01-15T04:38:41;10.75;;;5.30;;
6280;SDS011;3173;48.204;11.612;2024-01-15T04:41:10;11.00;;;5.03;;
6280;SDS011;3173;48.204;11.612;2024-01-15T04:43:36;10.85;;;5.47;;
6280;SDS011;3173;48.204;11.612;2024-01-15T04:46:02;10.10;;;5.57;;
6280;SDS011;3173;48.204;11.612;2024-01-15T04:48:30;10.65;;;5.68;;
6280;SDS011;3173;48.204;11.612;2024-01-15T04:50:56;10.05;;;5.10;;
6280;SDS011;3173;48.204;11.612;2024-01-15T04:53:22;10.27;;;5.22;;
6280;SDS011;3173;48.204;11.612;2024-01-15T04:55:48;10.07;;;4.88;;
6280;SDS011;3173;48.204;11.612;2024-01-15T04:58:14;12.73;;;6.00;;
6280;SDS011;3173;48.204;11.612;2024-01-15T05:00:40;8.93;;;5.38;;
6280;SDS011;3173;48.204;11.612;2024-01-15T05:03:06;10.13;;;4.53;;
6280;SDS011;3173;48.204;11.612;2024-01-15T05:05:33;10.05;;;5.15;;
6280;SDS011;3173;48.204;11.612;2024-01-15T05:07:59;9.43;;;5.05;;
6280;SDS011;3173;48.204;11.612;2024-01-15T05:10:25;9.55;;;4.20;;
6280;SDS011;3173;48.204;11.612;2024-01-15T05:12:51;8.73;;;4.78;;
6280;SDS011;3173;48.204;11.612;2024-01-15T05:15:17;10.30;;;5.20;;
6280;SDS011;3173;48.204;11.612;2024-01-15T05:17:44;9.75;;;5.05;;
6280;SDS011;3173;48.204;11.612;2024-01-15T05:20:10;8.73;;;5.03;;
6280;SDS011;3173;48.204;11.612;2024-01-15T05:22:36;8.40;;;4.22;;
6280;SDS011;3173;48.204;11.612;2024-01-15T05:25:02;13.93;;;5.28;;
6280;SDS011;3173;48.204;11.612;2024-01-15T05:27:28;10.15;;;4.70;;
6280;SDS011;3173;48.204;11.612;2024-01-15T05:29:54;9.25;;;4.55;;
6280;SDS011;3173;48.204;11.612;2024-01-15T05:32:21;12.32;;;4.68;;
6280;SDS011;3173;48.204;11.612;2024-01-15T05:34:47;11.85;;;4.43;;
6280;SDS011;3173;48.204;11.612;2024-01-15T05:37:13;10.45;;;5.57;;
6280;SDS011;3173;48.204;11.612;2024-01-15T05:39:39;8.80;;;4.60;;
6280;SDS011;3173;48.204;11.612;2024-01-15T05:42:05;11.07;;;5.50;;
6280;SDS011;3173;48.204;11.612;2024-01-15T05:44:31;7.80;;;4.13;;
6280;SDS011;3173;48.204;11.612;2024-01-15T05:46:57;10.85;;;5.15;;
6280;SDS011;3173;48.204;11.612;2024-01-15T05:49:23;14.93;;;4.97;;
6280;SDS011;3173;48.204;11.612;2024-01-15T05:51:49;7.40;;;4.05;;
6280;SDS011;3173;48.204;11.612;2024-01-15T05:54:17;12.55;;;5.50;;
6280;SDS011;3173;48.204;11.612;2024-01-15T05:56:44;9.02;;;4.65;;
6280;SDS011;3173;48.204;11.612;2024-01-15T05:59:11;9.73;;;4.72;;
6280;SDS011;3173;48.204;11.612;2024-01-15T06:01:37;10.70;;;5.20;;
6280;SDS011;3173;48.204;11.612;2024-01-15T06:04:03;8.93;;;4.22;;
6280;SDS011;3173;48.204;11.612;2024-01-15T06:06:29;8.73;;;4.50;;
6280;SDS011;3173;48.204;11.612;2024-01-15T06:08:56;12.95;;;4.60;;
6280;SDS011;3173;48.204;11.612;2024-01-15T06:11:29;7.90;;;4.05;;
6280;SDS011;3173;48.204;11.612;2024-01-15T06:13:55;9.95;;;4.95;;
6280;SDS011;3173;48.204;11.612;2024-01-15T06:16:21;9.57;;;4.35;;
6280;SDS011;3173;48.204;11.612;2024-01-15T06:18:47;6.78;;;3.33;;
6280;SDS011;3173;48.204;11.612;2024-01-15T06:21:13;8.65;;;3.88;;
6280;SDS011;3173;48.204;11.612;2024-01-15T06:23:39;9.85;;;4.43;;
6280;SDS011;3173;48.204;11.612;2024-01-15T06:26:06;7.45;;;3.75;;
6280;SDS011;3173;48.204;11.612;2024-01-15T06:28:32;7.00;;;4.32;;
6280;SDS011;3173;48.204;11.612;2024-01-15T06:30:58;8.05;;;4.20;;
6280;SDS011;3173;48.204;11.612;2024-01-15T06:33:24;7.78;;;3.53;;
6280;SDS011;3173;48.204;11.612;2024-01-15T06:35:50;8.40;;;4.20;;
6280;SDS011;3173;48.204;11.612;2024-01-15T06:38:16;9.00;;;3.63;;
6280;SDS011;3173;48.204;11.612;2024-01-15T06:40:42;7.80;;;3.80;;
6280;SDS011;3173;48.204;11.612;2024-01-15T06:43:13;7.10;;;3.83;;
6280;SDS011;3173;48.204;11.612;2024-01-15T06:45:40;7.03;;;3.60;;
6280;SDS011;3173;48.204;11.612;2024-01-15T06:48:06;6.40;;;4.10;;
6280;SDS011;3173;48.204;11.612;2024-01-15T06:50:33;7.80;;;4.57;;
6280;SDS011;3173;48.204;11.612;2024-01-15T06:52:59;8.20;;;4.22;;
6280;SDS011;3173;48.204;11.612;2024-01-15T06:55:25;7.38;;;4.05;;
6280;SDS011;3173;48.204;11.612;2024-01-15T06:57:53;10.90;;;4.85;;
6280;SDS011;3173;48.204;11.612;2024-01-15T07:00:19;7.22;;;3.80;;
6280;SDS011;3173;48.204;11.612;2024-01-15T07:02:45;6.13;;;3.55;;
6280;SDS011;3173;48.204;11.612;2024-01-15T07:05:11;8.18;;;4.15;;
6280;SDS011;3173;48.204;11.612;2024-01-15T07:07:37;4.53;;;2.47;;
6280;SDS011;3173;48.204;11.612;2024-01-15T07:10:04;6.55;;;4.05;;
6280;SDS011;3173;48.204;11.612;2024-01-15T07:12:31;6.22;;;3.30;;
6280;SDS011;3173;48.204;11.612;2024-01-15T07:14:57;6.15;;;3.25;;
6280;SDS011;3173;48.204;11.612;2024-01-15T07:17:23;8.48;;;3.88;;
6280;SDS011;3173;48.204;11.612;2024-01-15T07:19:49;11.27;;;3.65;;
6280;SDS011;3173;48.204;11.612;2024-01-15T07:22:16;7.10;;;3.45;;
6280;SDS011;3173;48.204;11.612;2024-01-15T07:24:42;7.80;;;3.45;;
6280;SDS011;3173;48.204;11.612;2024-01-15T07:27:09;9.85;;;4.78;;
6280;SDS011;3173;48.204;11.612;2024-01-15T07:29:35;7.25;;;3.30;;
6280;SDS011;3173;48.204;11.612;2024-01-15T07:32:02;9.65;;;4.18;;
6280;SDS011;3173;48.204;11.612;2024-01-15T07:34:29;11.32;;;4.70;;
6280;SDS011;3173;48.204;11.612;2024-01-15T07:36:55;7.22;;;3.65;;
6280;SDS011;3173;48.204;11.612;2024-01-15T07:39:21;8.77;;;4.73;;
6280;SDS011;3173;48.204;11.612;2024-01-15T07:41:48;7.80;;;3.63;;
6280;SDS011;3173;48.204;11.612;2024-01-15T07:44:14;8.47;;;4.10;;
6280;SDS011;3173;48.204;11.612;2024-01-15T07:46:43;8.20;;;4.30;;
6280;SDS011;3173;48.204;11.612;2024-01-15T07:49:09;9.45;;;5.00;;
6280;SDS011;3173;48.204;11.612;2024-01-15T07:51:35;7.80;;;4.00;;
6280;SDS011;3173;48.204;11.612;2024-01-15T07:54:01;8.40;;;4.43;;
6280;SDS011;3173;48.204;11.612;2024-01-15T07:56:27;9.27;;;3.92;;
6280;SDS011;3173;48.204;11.612;2024-01-15T07:58:54;9.80;;;4.25;;
6280;SDS011;3173;48.204;11.612;2024-01-15T08:01:20;7.75;;;4.72;;
6280;SDS011;3173;48.204;11.612;2024-01-15T08:03:45;10.23;;;4.70;;
6280;SDS011;3173;48.204;11.612;2024-01-15T08:06:12;8.00;;;4.38;;
6280;SDS011;3173;48.204;11.612;2024-01-15T08:08:38;10.00;;;3.63;;
6280;SDS011;3173;48.204;11.612;2024-01-15T08:11:04;10.30;;;4.83;;
6280;SDS011;3173;48.204;11.612;2024-01-15T08:13:30;12.07;;;5.10;;
6280;SDS011;3173;48.204;11.612;2024-01-15T08:15:56;9.43;;;5.05;;
6280;SDS011;3173;48.204;11.612;2024-01-15T08:18:22;13.70;;;5.10;;
6280;SDS011;3173;48.204;11.612;2024-01-15T08:20:49;13.52;;;5.32;;
6280;SDS011;3173;48.204;11.612;2024-01-15T08:23:16;15.38;;;5.05;;
6280;SDS011;3173;48.204;11.612;2024-01-15T08:25:42;10.20;;;4.85;;
6280;SDS011;3173;48.204;11.612;2024-01-15T08:28:08;8.73;;;4.40;;
6280;SDS011;3173;48.204;11.612;2024-01-15T08:30:35;7.57;;;4.25;;
6280;SDS011;3173;48.204;11.612;2024-01-15T08:33:01;8.20;;;4.35;;
6280;SDS011;3173;48.204;11.612;2024-01-15T08:35:27;7.63;;;3.75;;
6280;SDS011;3173;48.204;11.612;2024-01-15T08:37:53;12.38;;;5.13;;
6280;SDS011;3173;48.204;11.612;2024-01-15T08:40:19;10.80;;;4.05;;
6280;SDS011;3173;48.204;11.612;2024-01-15T08:42:45;7.10;;;3.97;;
6280;SDS011;3173;48.204;11.612;2024-01-15T08:45:11;10.43;;;3.95;;
6280;SDS011;3173;48.204;11.612;2024-01-15T08:47:37;7.50;;;4.30;;
6280;SDS011;3173;48.204;11.612;2024-01-15T08:50:04;7.65;;;3.92;;
6280;SDS011;3173;48.204;11.612;2024-01-15T08:52:30;8.57;;;4.45;;
6280;SDS011;3173;48.204;11.612;2024-01-15T08:54:56;5.97;;;3.35;;
6280;SDS011;3173;48.204;11.612;2024-01-15T08:57:23;9.52;;;4.32;;
6280;SDS011;3173;48.204;11.612;2024-01-15T08:59:49;7.70;;;4.00;;
6280;SDS011;3173;48.204;11.612;2024-01-15T09:02:16;6.47;;;3.20;;
6280;SDS011;3173;48.204;11.612;2024-01-15T09:04:42;8.23;;;4.40;;
6280;SDS011;3173;48.204;11.612;2024-01-15T09:07:08;7.93;;;4.20;;
6280;SDS011;3173;48.204;11.612;2024-01-15T09:09:34;8.20;;;4.35;;
6280;SDS011;3173;48.204;11.612;2024-01-15T09:12:01;9.02;;;4.47;;
6280;SDS011;3173;48.204;11.612;2024-01-15T09:14:27;12.23;;;4.32;;
6280;SDS011;3173;48.204;11.612;2024-01-15T09:16:54;7.40;;;3.63;;
6280;SDS011;3173;48.204;11.612;2024-01-15T09:19:21;9.55;;;4.90;;
6280;SDS011;3173;48.204;11.612;2024-01-15T09:21:47;10.45;;;5.20;;
6280;SDS011;3173;48.204;11.612;2024-01-15T09:24:13;9.80;;;5.40;;
6280;SDS011;3173;48.204;11.612;2024-01-15T09:26:39;7.53;;;4.28;;
6280;SDS011;3173;48.204;11.612;2024-01-15T09:29:05;8.57;;;4.30;;
6280;SDS011;3173;48.204;11.612;2024-01-15T09:31:31;6.80;;;3.95;;
6280;SDS011;3173;48.204;11.612;2024-01-15T09:33:58;11.18;;;4.90;;
6280;SDS011;3173;48.204;11.612;2024-01-15T09:36:25;8.23;;;4.05;;
6280;SDS011;3173;48.204;11.612;2024-01-15T09:38:51;9.48;;;4.55;;
6280;SDS011;3173;48.204;11.612;2024-01-15T09:41:18;7.07;;;3.75;;
6280;SDS011;3173;48.204;11.612;2024-01-15T09:43:44;8.60;;;4.22;;
6280;SDS011;3173;48.204;11.612;2024-01-15T09:46:11;11.18;;;4.80;;
6280;SDS011;3173;48.204;11.612;2024-01-15T09:48:38;8.10;;;4.32;;
6280;SDS011;3173;48.204;11.612;2024-01-15T09:51:05;9.10;;;3.78;;
6280;SDS011;3173;48.204;11.612;2024-01-15T09:53:33;12.05;;;4.63;;
6280;SDS011;3173;48.204;11.612;2024-01-15T09:55:59;8.50;;;4.15;;
6280;SDS011;3173;48.204;11.612;2024-01-15T09:58:25;12.40;;;4.35;;
6280;SDS011;3173;48.204;11.612;2024-01-15T10:00:54;6.97;;;3.97;;
6280;SDS011;3173;48.204;11.612;2024-01-15T10:03:20;12.23;;;4.53;;
6280;SDS011;3173;48.204;11.612;2024-01-15T10:05:47;6.97;;;3.90;;
6280;SDS011;3173;48.204;11.612;2024-01-15T10:08:14;6.85;;;3.53;;
6280;SDS011;3173;48.204;11.612;2024-01-15T10:10:40;14.10;;;4.13;;
6280;SDS011;3173;48.204;11.612;2024-01-15T10:13:07;6.20;;;4.07;;
6280;SDS011;3173;48.204;11.612;2024-01-15T10:15:34;10.30;;;3.72;;
6280;SDS011;3173;48.204;11.612;2024-01-15T10:18:03;6.60;;;3.58;;
6280;SDS011;3173;48.204;11.612;2024-01-15T10:20:31;7.72;;;4.45;;
6280;SDS011;3173;48.204;11.612;2024-01-15T10:22:58;6.18;;;3.70;;
6280;SDS011;3173;48.204;11.612;2024-01-15T10:25:24;6.50;;;2.95;;
6280;SDS011;3173;48.204;11.612;2024-01-15T10:28:03;5.65;;;3.30;;
6280;SDS011;3173;48.204;11.612;2024-01-15T10:30:30;7.57;;;3.35;;
6280;SDS011;3173;48.204;11.612;2024-01-15T10:33:01;6.60;;;3.20;;
6280;SDS011;3173;48.204;11.612;2024-01-15T10:35:28;6.75;;;3.47;;
6280;SDS011;3173;48.204;11.612;2024-01-15T10:37:54;14.57;;;3.20;;
6280;SDS011;3173;48.204;11.612;2024-01-15T10:40:21;5.75;;;2.70;;
6280;SDS011;3173;48.204;11.612;2024-01-15T10:42:47;8.60;;;3.70;;
6280;SDS011;3173;48.204;11.612;2024-01-15T10:45:13;7.40;;;3.67;;
6280;SDS011;3173;48.204;11.612;2024-01-15T10:47:43;5.68;;;2.90;;
6280;SDS011;3173;48.204;11.612;2024-01-15T10:50:09;9.18;;;4.25;;
6280;SDS011;3173;48.204;11.612;2024-01-15T10:52:36;5.90;;;3.13;;
6280;SDS011;3173;48.204;11.612;2024-01-15T10:55:03;5.22;;;2.67;;
6280;SDS011;3173;48.204;11.612;2024-01-15T10:57:29;5.20;;;2.93;;
6280;SDS011;3173;48.204;11.612;2024-01-15T10:59:56;5.93;;;2.93;;
6280;SDS011;3173;48.204;11.612;2024-01-15T11:02:24;6.90;;;3.40;;
6280;SDS011;3173;48.204;11.612;2024-01-15T11:04:50;7.50;;;2.93;;
6280;SDS011;3173;48.204;11.612;2024-01-15T11:07:17;6.73;;;3.13;;
6280;SDS011;3173;48.204;11.612;2024-01-15T11:09:47;5.83;;;3.30;;
6280;SDS011;3173;48.204;11.612;2024-01-15T11:12:13;9.37;;;3.83;;
6280;SDS011;3173;48.204;11.612;2024-01-15T11:14:47;7.63;;;3.57;;
6280;SDS011;3173;48.204;11.612;2024-01-15T11:17:14;5.70;;;2.53;;
6280;SDS011;3173;48.204;11.612;2024-01-15T11:22:10;7.23;;;3.70;;
6280;SDS011;3173;48.204;11.612;2024-01-15T11:24:40;7.93;;;3.50;;
6280;SDS011;3173;48.204;11.612;2024-01-15T11:27:07;6.33;;;4.20;;
6280;SDS011;3173;48.204;11.612;2024-01-15T11:29:34;7.23;;;3.53;;
6280;SDS011;3173;48.204;11.612;2024-01-15T11:32:01;5.93;;;3.13;;
6280;SDS011;3173;48.204;11.612;2024-01-15T11:37:14;4.80;;;3.00;;
6280;SDS011;3173;48.204;11.612;2024-01-15T11:39:43;6.67;;;3.80;;
6280;SDS011;3173;48.204;11.612;2024-01-15T11:42:10;7.53;;;4.20;;
6280;SDS011;3173;48.204;11.612;2024-01-15T11:44:36;7.50;;;3.80;;
6280;SDS011;3173;48.204;11.612;2024-01-15T11:47:08;5.80;;;3.23;;
6280;SDS011;3173;48.204;11.612;2024-01-15T11:52:22;6.17;;;3.07;;
6280;SDS011;3173;48.204;11.612;2024-01-15T11:54:51;7.43;;;4.27;;
6280;SDS011;3173;48.204;11.612;2024-01-15T11:57:22;6.83;;;4.13;;
6280;SDS011;3173;48.204;11.612;2024-01-15T11:59:50;6.87;;;4.20;;
6280;SDS011;3173;48.204;11.612;2024-01-15T12:02:16;9.97;;;3.90;;
6280;SDS011;3173;48.204;11.612;2024-01-15T12:04:42;5.27;;;3.30;;
6280;SDS011;3173;48.204;11.612;2024-01-15T12:07:08;9.50;;;4.10;;
6280;SDS011;3173;48.204;11.612;2024-01-15T12:09:34;5.90;;;3.60;;
6280;SDS011;3173;48.204;11.612;2024-01-15T12:12:03;6.07;;;3.53;;
6280;SDS011;3173;48.204;11.612;2024-01-15T12:14:33;4.10;;;2.77;;
6280;SDS011;3173;48.204;11.612;2024-01-15T12:17:00;4.40;;;3.00;;
6280;SDS011;3173;48.204;11.612;2024-01-15T12:19:26;6.20;;;3.20;;
6280;SDS011;3173;48.204;11.612;2024-01-15T12:21:52;7.10;;;3.20;;
6280;SDS011;3173;48.204;11.612;2024-01-15T12:24:18;5.83;;;3.30;;
6280;SDS011;3173;48.204;11.612;2024-01-15T12:26:44;5.40;;;3.10;;
6280;SDS011;3173;48.204;11.612;2024-01-15T12:29:11;5.60;;;3.30;;
6280;SDS011;3173;48.204;11.612;2024-01-15T12:31:37;4.50;;;2.70;;
6280;SDS011;3173;48.204;11.612;2024-01-15T12:34:03;4.93;;;2.40;;
6280;SDS011;3173;48.204;11.612;2024-01-15T12:36:32;6.00;;;2.77;;
6280;SDS011;3173;48.204;11.612;2024-01-15T12:38:59;6.00;;;3.20;;
6280;SDS011;3173;48.204;11.612;2024-01-15T12:41:25;5.33;;;2.90;;
6280;SDS011;3173;48.204;11.612;2024-01-15T12:43:51;7.50;;;3.13;;
6280;SDS011;3173;48.204;11.612;2024-01-15T12:46:18;4.60;;;2.57;;
6280;SDS011;3173;48.204;11.612;2024-01-15T12:48:44;4.73;;;2.53;;
6280;SDS011;3173;48.204;11.612;2024-01-15T12:51:10;6.80;;;2.60;;
6280;SDS011;3173;48.204;11.612;2024-01-15T12:53:36;6.23;;;2.40;;
6280;SDS011;3173;48.204;11.612;2024-01-15T12:56:02;5.27;;;2.70;;
6280;SDS011;3173;48.204;11.612;2024-01-15T12:58:28;4.40;;;2.30;;
6280;SDS011;3173;48.204;11.612;2024-01-15T13:00:54;9.20;;;2.37;;
6280;SDS011;3173;48.204;11.612;2024-01-15T13:03:22;5.37;;;2.47;;
6280;SDS011;3173;48.204;11.612;2024-01-15T13:05:48;4.40;;;2.70;;
6280;SDS011;3173;48.204;11.612;2024-01-15T13:08:14;4.00;;;2.57;;
6280;SDS011;3173;48.204;11.612;2024-01-15T13:10:40;3.13;;;2.00;;
6280;SDS011;3173;48.204;11.612;2024-01-15T13:13:07;3.20;;;2.10;;
6280;SDS011;3173;48.204;11.612;2024-01-15T13:15:33;9.33;;;3.00;;
6280;SDS011;3173;48.204;11.612;2024-01-15T13:17:59;5.87;;;2.80;;
6280;SDS011;3173;48.204;11.612;2024-01-15T13:20:25;6.47;;;3.00;;
6280;SDS011;3173;48.204;11.612;2024-01-15T13:22:51;6.20;;;2.67;;
6280;SDS011;3173;48.204;11.612;2024-01-15T13:25:17;4.63;;;2.60;;
6280;SDS011;3173;48.204;11.612;2024-01-15T13:27:43;4.67;;;2.47;;
6280;SDS011;3173;48.204;11.612;2024-01-15T13:30:10;7.20;;;3.00;;
6280;SDS011;3173;48.204;11.612;2024-01-15T13:32:37;5.57;;;2.90;;
6280;SDS011;3173;48.204;11.612;2024-01-15T13:35:03;6.00;;;3.10;;
6280;SDS011;3173;48.204;11.612;2024-01-15T13:37:37;6.20;;;3.20;;
6280;SDS011;3173;48.204;11.612;2024-01-15T13:40:06;7.07;;;3.63;;
6280;SDS011;3173;48.204;11.612;2024-01-15T13:42:34;4.67;;;3.30;;
6280;SDS011;3173;48.204;11.612;2024-01-15T13:45:03;6.30;;;3.40;;
6280;SDS011;3173;48.204;11.612;2024-01-15T13:47:30;5.30;;;2.80;;
6280;SDS011;3173;48.204;11.612;2024-01-15T13:49:57;6.77;;;2.80;;
6280;SDS011;3173;48.204;11.612;2024-01-15T13:52:24;9.03;;;3.17;;
6280;SDS011;3173;48.204;11.612;2024-01-15T13:54:50;6.83;;;3.23;;
6280;SDS011;3173;48.204;11.612;2024-01-15T13:57:16;5.90;;;3.17;;
6280;SDS011;3173;48.204;11.612;2024-01-15T13:59:44;7.27;;;3.27;;
6280;SDS011;3173;48.204;11.612;2024-01-15T14:02:10;6.10;;;3.63;;
6280;SDS011;3173;48.204;11.612;2024-01-15T14:04:37;7.93;;;3.97;;
6280;SDS011;3173;48.204;11.612;2024-01-15T14:07:03;5.80;;;3.57;;
6280;SDS011;3173;48.204;11.612;2024-01-15T14:09:29;6.67;;;3.33;;
6280;SDS011;3173;48.204;11.612;2024-01-15T14:11:56;10.77;;;3.83;;
6280;SDS011;3173;48.204;11.612;2024-01-15T14:14:23;7.83;;;3.30;;
6280;SDS011;3173;48.204;11.612;2024-01-15T14:16:49;7.80;;;3.63;;
6280;SDS011;3173;48.204;11.612;2024-01-15T14:19:15;6.77;;;3.90;;
6280;SDS011;3173;48.204;11.612;2024-01-15T14:21:41;7.40;;;3.67;;
6280;SDS011;3173;48.204;11.612;2024-01-15T14:24:07;9.10;;;3.87;;
6280;SDS011;3173;48.204;11.612;2024-01-15T14:26:34;16.83;;;4.33;;
6280;SDS011;3173;48.204;11.612;2024-01-15T14:29:00;9.67;;;3.30;;
6280;SDS011;3173;48.204;11.612;2024-01-15T14:31:26;8.43;;;4.30;;
6280;SDS011;3173;48.204;11.612;2024-01-15T14:33:53;7.10;;;4.03;;
6280;SDS011;3173;48.204;11.612;2024-01-15T14:36:23;8.40;;;4.07;;
6280;SDS011;3173;48.204;11.612;2024-01-15T14:38:49;7.07;;;3.90;;
6280;SDS011;3173;48.204;11.612;2024-01-15T14:41:16;9.73;;;4.33;;
6280;SDS011;3173;48.204;11.612;2024-01-15T14:43:42;13.60;;;6.00;;
6280;SDS011;3173;48.204;11.612;2024-01-15T14:46:09;7.20;;;3.83;;
6280;SDS011;3173;48.204;11.612;2024-01-15T14:48:36;8.40;;;3.53;;
6280;SDS011;3173;48.204;11.612;2024-01-15T14:51:02;6.03;;;3.37;;
6280;SDS011;3173;48.204;11.612;2024-01-15T14:53:31;6.90;;;3.40;;
6280;SDS011;3173;48.204;11.612;2024-01-15T14:55:57;7.33;;;3.93;;
6280;SDS011;3173;48.204;11.612;2024-01-15T14:58:23;5.30;;;3.13;;
6280;SDS011;3173;48.204;11.612;2024-01-15T15:00:50;7.83;;;4.03;;